createdAt,value
2023-01-17T00:01:59.623Z,16.55
2023-01-17T00:04:46.678Z,17.10
2023-01-17T00:07:34.098Z,17.70
2023-01-17T00:10:07.235Z,14.27
2023-01-17T00:12:35.565Z,15.60
2023-01-17T00:15:03.515Z,15.48
2023-01-17T00:17:30.860Z,16.42
2023-01-17T00:20:19.325Z,16.00
2023-01-17T00:23:05.537Z,16.70
2023-01-17T00:25:57.439Z,15.30
2023-01-17T00:28:25.948Z,14.95
2023-01-17T00:30:53.475Z,15.65
2023-01-17T00:33:22.214Z,16.48
2023-01-17T00:35:50.056Z,16.65
2023-01-17T00:38:37.373Z,17.25
2023-01-17T00:41:07.625Z,18.15
2023-01-17T00:43:54.444Z,18.25
2023-01-17T00:46:41.047Z,22.05
2023-01-17T00:49:26.923Z,21.35
2023-01-17T00:52:13.163Z,21.75
2023-01-17T00:54:58.606Z,24.17
2023-01-17T00:57:44.616Z,25.73
2023-01-17T01:00:31.091Z,24.73
2023-01-17T01:03:17.058Z,25.88
2023-01-17T01:06:02.773Z,25.42
2023-01-17T01:08:48.968Z,22.35
2023-01-17T01:11:39.590Z,27.73
2023-01-17T01:14:28.916Z,27.00
2023-01-17T01:17:14.516Z,25.15
2023-01-17T01:20:00.017Z,24.85
2023-01-17T01:22:45.455Z,27.65
2023-01-17T01:25:31.097Z,25.67
2023-01-17T01:28:29.736Z,25.58
2023-01-17T01:31:18.632Z,24.50
2023-01-17T01:33:46.123Z,21.98
2023-01-17T01:36:13.550Z,25.55
2023-01-17T01:38:40.437Z,19.60
2023-01-17T01:41:07.779Z,26.58
2023-01-17T01:43:55.011Z,22.35
2023-01-17T01:46:41.250Z,21.20
2023-01-17T01:49:25.796Z,23.00
2023-01-17T01:51:57.064Z,22.55
2023-01-17T01:54:39.279Z,20.50
2023-01-17T01:57:09.954Z,22.25
2023-01-17T01:59:41.676Z,25.33
2023-01-17T02:02:08.975Z,23.90
2023-01-17T02:04:36.475Z,19.92
2023-01-17T02:07:08.376Z,19.88
2023-01-17T02:09:35.311Z,20.00
2023-01-17T02:12:03.838Z,26.38
2023-01-17T02:14:30.819Z,21.60
2023-01-17T02:17:29.896Z,24.52
2023-01-17T02:20:24.465Z,24.20
2023-01-17T02:22:54.631Z,23.20
2023-01-17T02:25:30.577Z,25.90
2023-01-17T02:28:19.199Z,22.73
2023-01-17T02:30:54.519Z,21.00
2023-01-17T02:33:34.014Z,26.58
2023-01-17T02:36:13.084Z,21.67
2023-01-17T02:38:51.331Z,25.33
2023-01-17T02:41:23.463Z,22.80
2023-01-17T02:43:52.268Z,24.88
2023-01-17T02:46:19.427Z,26.50
2023-01-17T02:48:48.141Z,20.95
2023-01-17T02:51:30.598Z,24.05
2023-01-17T02:54:22.288Z,24.88
2023-01-17T02:57:13.309Z,22.20
2023-01-17T02:59:56.511Z,23.35
2023-01-17T03:02:58.716Z,22.67
2023-01-17T03:05:51.274Z,21.23
2023-01-17T03:08:19.261Z,21.88
2023-01-17T03:10:46.972Z,22.90
2023-01-17T03:13:13.907Z,19.38
2023-01-17T03:15:41.271Z,24.55
2023-01-17T03:18:14.558Z,22.80
2023-01-17T03:20:42.052Z,22.13
2023-01-17T03:23:08.912Z,22.52
2023-01-17T03:25:36.057Z,23.75
2023-01-17T03:28:03.736Z,22.52
2023-01-17T03:30:31.023Z,24.33
2023-01-17T03:32:57.981Z,19.30
2023-01-17T03:35:25.235Z,19.65
2023-01-17T03:37:52.155Z,20.20
2023-01-17T03:40:19.416Z,23.80
2023-01-17T03:42:46.382Z,19.77
2023-01-17T03:45:13.651Z,18.65
2023-01-17T03:47:40.565Z,18.73
2023-01-17T03:50:08.460Z,20.65
2023-01-17T03:52:35.392Z,20.52
2023-01-17T03:55:02.771Z,19.77
2023-01-17T03:57:29.825Z,20.27
2023-01-17T03:59:57.081Z,19.15
2023-01-17T04:02:24.650Z,17.98
2023-01-17T04:05:09.900Z,19.55
2023-01-17T04:07:37.250Z,18.50
2023-01-17T04:10:04.640Z,18.08
2023-01-17T04:12:31.822Z,20.05
2023-01-17T04:14:58.718Z,20.38
2023-01-17T04:17:26.109Z,16.52
2023-01-17T04:19:53.419Z,20.23
2023-01-17T04:22:20.567Z,19.00
2023-01-17T04:24:47.430Z,18.05
2023-01-17T04:27:14.681Z,18.45
2023-01-17T04:29:41.643Z,17.88
2023-01-17T04:32:08.893Z,17.95
2023-01-17T04:34:35.859Z,16.27
2023-01-17T04:37:03.182Z,15.13
2023-01-17T04:39:30.059Z,20.13
2023-01-17T04:41:57.226Z,15.93
2023-01-17T04:44:24.148Z,17.75
2023-01-17T04:46:51.522Z,17.17
2023-01-17T04:49:18.645Z,19.85
2023-01-17T04:51:45.848Z,18.77
2023-01-17T04:54:12.722Z,16.70
2023-01-17T04:56:39.843Z,16.10
2023-01-17T04:59:06.861Z,17.77
2023-01-17T05:01:34.154Z,19.10
2023-01-17T05:04:01.136Z,17.98
2023-01-17T05:06:28.292Z,18.92
2023-01-17T05:08:55.163Z,17.73
2023-01-17T05:11:22.411Z,16.30
2023-01-17T05:13:49.409Z,17.15
2023-01-17T05:16:19.672Z,14.93
2023-01-17T05:18:46.649Z,17.83
2023-01-17T05:21:13.855Z,16.65
2023-01-17T05:23:42.657Z,14.20
2023-01-17T05:26:09.937Z,18.45
2023-01-17T05:28:37.138Z,20.40
2023-01-17T05:31:04.655Z,16.42
2023-01-17T05:33:31.674Z,21.90
2023-01-17T05:35:59.071Z,18.35
2023-01-17T05:38:25.972Z,19.40
2023-01-17T05:40:53.102Z,15.75
2023-01-17T05:43:22.070Z,17.50
2023-01-17T05:45:49.993Z,18.77
2023-01-17T05:48:17.131Z,18.90
2023-01-17T05:50:44.419Z,21.05
2023-01-17T05:53:13.706Z,20.02
2023-01-17T05:55:42.175Z,19.20
2023-01-17T05:58:15.744Z,20.25
2023-01-17T06:00:43.362Z,19.40
2023-01-17T06:03:11.443Z,18.42
2023-01-17T06:05:38.824Z,16.88
2023-01-17T06:08:06.168Z,16.48
2023-01-17T06:10:33.581Z,18.85
2023-01-17T06:13:12.567Z,19.20
2023-01-17T06:15:40.076Z,20.38
2023-01-17T06:18:11.907Z,17.63
2023-01-17T06:20:39.710Z,16.60
2023-01-17T06:23:08.988Z,17.27
2023-01-17T06:25:43.730Z,20.92
2023-01-17T06:28:12.777Z,19.50
2023-01-17T06:30:40.450Z,17.85
2023-01-17T06:33:07.800Z,17.48
2023-01-17T06:35:35.174Z,19.25
2023-01-17T06:38:02.499Z,16.10
2023-01-17T06:40:30.425Z,19.63
2023-01-17T06:43:01.770Z,22.27
2023-01-17T06:45:29.984Z,18.00
2023-01-17T06:47:59.226Z,19.15
2023-01-17T06:50:27.236Z,19.05
2023-01-17T06:52:59.942Z,22.88
2023-01-17T06:55:28.946Z,18.13
2023-01-17T06:57:59.363Z,17.00
2023-01-17T07:00:27.633Z,19.83
2023-01-17T07:02:55.236Z,18.60
2023-01-17T07:05:22.565Z,18.60
2023-01-17T07:07:49.584Z,15.45
2023-01-17T07:10:16.964Z,19.73
2023-01-17T07:12:43.957Z,17.30
2023-01-17T07:15:12.204Z,21.13
2023-01-17T07:17:39.516Z,17.80
2023-01-17T07:20:07.729Z,16.15
2023-01-17T07:22:34.779Z,14.48
2023-01-17T07:25:02.217Z,17.33
2023-01-17T07:27:30.789Z,18.40
2023-01-17T07:29:58.123Z,16.25
2023-01-17T07:32:26.739Z,14.48
2023-01-17T07:34:56.827Z,17.88
2023-01-17T07:37:23.882Z,19.27
2023-01-17T07:39:51.038Z,19.08
2023-01-17T07:42:18.082Z,14.98
2023-01-17T07:44:45.521Z,16.02
2023-01-17T07:47:12.622Z,16.17
2023-01-17T07:49:39.770Z,16.83
2023-01-17T07:52:08.247Z,17.25
2023-01-17T07:54:35.311Z,18.52
2023-01-17T07:57:03.195Z,16.65
2023-01-17T07:59:30.420Z,16.88
2023-01-17T08:01:57.727Z,15.63
2023-01-17T08:04:34.667Z,20.77
2023-01-17T08:07:02.041Z,15.95
2023-01-17T08:09:29.052Z,17.13
2023-01-17T08:11:56.519Z,17.17
2023-01-17T08:14:23.451Z,16.85
2023-01-17T08:16:50.787Z,17.10
2023-01-17T08:19:17.712Z,16.15
2023-01-17T08:21:44.991Z,13.77
2023-01-17T08:24:13.764Z,14.18
2023-01-17T08:26:41.266Z,15.45
2023-01-17T08:29:09.263Z,16.48
2023-01-17T08:31:36.872Z,15.65
2023-01-17T08:34:04.444Z,13.05
2023-01-17T08:36:31.968Z,12.00
2023-01-17T08:38:58.993Z,13.00
2023-01-17T08:41:29.182Z,15.65
2023-01-17T08:43:57.748Z,12.20
2023-01-17T08:46:25.190Z,12.52
2023-01-17T08:48:56.629Z,19.55
2023-01-17T08:53:55.342Z,14.75
2023-01-17T08:56:23.837Z,16.75
2023-01-17T08:58:50.778Z,12.02
2023-01-17T09:01:18.610Z,12.95
2023-01-17T09:03:48.154Z,14.65
2023-01-17T09:06:16.607Z,14.75
2023-01-17T09:08:47.032Z,13.00
2023-01-17T09:11:16.820Z,11.07
2023-01-17T09:13:43.801Z,12.00
2023-01-17T09:16:11.291Z,12.43
2023-01-17T09:18:38.899Z,13.02
2023-01-17T09:21:17.450Z,11.50
2023-01-17T09:23:44.813Z,12.52
2023-01-17T09:26:20.122Z,10.82
2023-01-17T09:28:47.864Z,15.07
2023-01-17T09:31:17.376Z,11.65
2023-01-17T09:33:44.782Z,14.23
2023-01-17T09:36:12.452Z,13.77
2023-01-17T09:38:40.181Z,11.32
2023-01-17T09:41:35.109Z,15.18
2023-01-17T09:44:02.230Z,15.70
2023-01-17T09:46:36.696Z,11.02
2023-01-17T09:49:13.066Z,11.50
2023-01-17T09:51:42.204Z,11.90
2023-01-17T09:54:22.157Z,12.73
2023-01-17T09:57:01.133Z,12.77
2023-01-17T09:59:40.196Z,15.07
2023-01-17T10:02:20.970Z,14.07
2023-01-17T10:04:52.156Z,12.43
2023-01-17T10:07:24.242Z,11.90
2023-01-17T10:10:16.778Z,14.27
2023-01-17T10:13:19.302Z,15.23
2023-01-17T10:16:18.789Z,10.80
2023-01-17T10:19:10.467Z,13.07
2023-01-17T10:22:02.389Z,13.85
2023-01-17T10:24:46.827Z,13.88
2023-01-17T10:27:59.475Z,13.20
2023-01-17T10:30:33.849Z,10.38
2023-01-17T10:33:12.687Z,12.30
2023-01-17T10:36:04.216Z,13.07
2023-01-17T10:38:35.067Z,12.93
2023-01-17T10:41:24.274Z,14.30
2023-01-17T10:44:12.477Z,13.45
2023-01-17T10:46:45.371Z,13.25
2023-01-17T10:49:19.052Z,14.82
2023-01-17T10:52:01.708Z,13.85
2023-01-17T10:55:07.690Z,13.43
2023-01-17T10:57:41.225Z,15.50
2023-01-17T11:00:20.191Z,14.90
2023-01-17T11:02:51.007Z,13.80
2023-01-17T11:05:29.756Z,17.45
2023-01-17T11:08:02.499Z,13.65
2023-01-17T11:10:38.066Z,14.48
2023-01-17T11:13:21.257Z,14.75
2023-01-17T11:15:51.162Z,16.67
2023-01-17T11:18:21.062Z,15.05
2023-01-17T11:21:15.005Z,16.42
2023-01-17T11:23:47.649Z,15.45
2023-01-17T11:26:25.493Z,17.00
2023-01-17T11:28:53.160Z,15.65
2023-01-17T11:31:20.050Z,14.75
2023-01-17T11:33:54.023Z,15.45
2023-01-17T11:36:30.201Z,16.13
2023-01-17T11:39:26.008Z,14.70
2023-01-17T11:41:53.541Z,15.27
2023-01-17T11:44:26.068Z,16.63
2023-01-17T11:47:08.857Z,17.88
2023-01-17T11:49:36.101Z,16.10
2023-01-17T11:52:24.016Z,15.55
2023-01-17T11:54:54.155Z,15.00
2023-01-17T11:57:27.871Z,14.75
2023-01-17T12:00:15.958Z,18.05
2023-01-17T12:03:20.771Z,15.63
2023-01-17T12:06:03.498Z,15.88
2023-01-17T12:09:04.224Z,24.58
2023-01-17T12:11:37.439Z,19.40
2023-01-17T12:14:28.140Z,15.82
2023-01-17T12:17:18.263Z,19.92
2023-01-17T12:20:05.180Z,19.70
2023-01-17T12:22:58.019Z,14.85
2023-01-17T12:25:36.683Z,19.40
2023-01-17T12:28:11.486Z,16.33
2023-01-17T12:30:47.777Z,17.30
2023-01-17T12:33:30.111Z,16.60
2023-01-17T12:36:02.547Z,18.55
2023-01-17T12:38:38.598Z,19.00
2023-01-17T12:41:31.305Z,28.30
2023-01-17T12:44:01.888Z,16.60
2023-01-17T12:46:43.249Z,18.80
2023-01-17T12:52:30.124Z,16.80
2023-01-17T12:55:05.780Z,14.52
2023-01-17T12:57:39.857Z,19.25
2023-01-17T13:00:10.805Z,17.30
2023-01-17T13:02:45.075Z,18.47
2023-01-17T13:05:26.143Z,20.73
2023-01-17T13:08:34.489Z,20.27
2023-01-17T13:11:07.823Z,17.27
2023-01-17T13:13:36.331Z,17.08
2023-01-17T13:16:12.737Z,22.40
2023-01-17T13:18:47.333Z,20.65
2023-01-17T13:21:35.390Z,21.48
2023-01-17T13:24:15.989Z,15.57
2023-01-17T13:27:15.307Z,16.63
2023-01-17T13:29:57.208Z,19.85
2023-01-17T13:32:52.150Z,23.20
2023-01-17T13:35:42.008Z,22.10
2023-01-17T13:38:27.979Z,14.52
2023-01-17T13:41:01.401Z,19.35
2023-01-17T13:43:34.736Z,17.33
2023-01-17T13:46:03.574Z,20.10
2023-01-17T13:48:38.128Z,18.40
2023-01-17T13:51:07.961Z,16.85
2023-01-17T13:53:55.046Z,19.65
2023-01-17T13:56:22.168Z,24.63
2023-01-17T13:58:50.330Z,19.23
2023-01-17T14:01:23.992Z,15.18
2023-01-17T14:03:51.518Z,16.23
2023-01-17T14:06:37.163Z,17.25
2023-01-17T14:09:12.971Z,18.10
2023-01-17T14:11:55.828Z,21.33
2023-01-17T14:14:36.068Z,19.48
2023-01-17T14:17:25.685Z,18.38
2023-01-17T14:19:57.672Z,21.88
2023-01-17T14:22:28.604Z,22.95
2023-01-17T14:25:00.477Z,17.67
2023-01-17T14:27:30.736Z,19.60
2023-01-17T14:29:59.414Z,22.65
2023-01-17T14:32:36.249Z,17.98
2023-01-17T14:35:05.648Z,21.10
2023-01-17T14:37:33.083Z,19.55
2023-01-17T14:40:01.088Z,20.65
2023-01-17T14:42:30.896Z,24.88
2023-01-17T14:45:08.414Z,21.40
2023-01-17T14:47:41.508Z,22.40
2023-01-17T14:50:14.493Z,17.98
2023-01-17T14:52:41.644Z,17.23
2023-01-17T14:55:19.082Z,20.63
2023-01-17T14:57:56.788Z,23.33
2023-01-17T15:00:25.477Z,31.45
2023-01-17T15:02:53.901Z,23.95
2023-01-17T15:05:24.127Z,20.95
2023-01-17T15:07:53.980Z,25.25
2023-01-17T15:10:24.776Z,22.08
2023-01-17T15:12:52.772Z,22.05
2023-01-17T15:15:27.224Z,25.88
2023-01-17T15:18:16.746Z,26.67
2023-01-17T15:20:53.750Z,21.10
2023-01-17T15:23:22.797Z,28.02
2023-01-17T15:25:51.246Z,34.40
2023-01-17T15:28:19.249Z,29.77
2023-01-17T15:31:16.967Z,23.60
2023-01-17T15:33:51.130Z,23.55
2023-01-17T15:36:21.087Z,24.67
2023-01-17T15:38:54.582Z,24.08
2023-01-17T15:41:24.176Z,30.17
2023-01-17T15:43:51.476Z,24.55
2023-01-17T15:46:42.998Z,24.00
2023-01-17T15:49:18.619Z,27.05
2023-01-17T15:52:08.890Z,25.92
2023-01-17T15:54:36.241Z,23.30
2023-01-17T15:57:29.810Z,20.85
2023-01-17T16:00:12.564Z,24.48
2023-01-17T16:02:45.270Z,24.80
2023-01-17T16:05:22.097Z,24.23
2023-01-17T16:07:51.001Z,23.10
2023-01-17T16:10:31.841Z,26.40
2023-01-17T16:13:00.453Z,26.42
2023-01-17T16:15:28.750Z,28.33
2023-01-17T16:17:57.767Z,30.75
2023-01-17T16:20:36.707Z,26.42
2023-01-17T16:23:03.603Z,27.83
2023-01-17T16:25:32.802Z,28.40
2023-01-17T16:27:59.831Z,29.77
2023-01-17T16:30:28.146Z,26.67
2023-01-17T16:32:56.927Z,25.00
2023-01-17T16:35:27.818Z,32.25
2023-01-17T16:37:57.491Z,32.30
2023-01-17T16:40:27.422Z,29.73
2023-01-17T16:42:58.584Z,30.83
2023-01-17T16:45:26.326Z,29.70
2023-01-17T16:47:54.461Z,27.80
2023-01-17T16:50:25.147Z,33.45
2023-01-17T16:52:54.084Z,30.73
2023-01-17T16:55:24.344Z,33.03
2023-01-17T16:57:54.168Z,29.02
2023-01-17T17:00:22.767Z,34.45
2023-01-17T17:02:51.157Z,33.15
2023-01-17T17:05:19.263Z,32.20
2023-01-17T17:07:50.749Z,33.05
2023-01-17T17:10:21.270Z,32.30
2023-01-17T17:12:48.464Z,34.83
2023-01-17T17:15:15.637Z,34.00
2023-01-17T17:17:43.454Z,30.90
2023-01-17T17:20:16.082Z,37.75
2023-01-17T17:22:49.448Z,32.63
2023-01-17T17:25:18.986Z,33.15
2023-01-17T17:27:46.294Z,28.30
2023-01-17T17:30:14.486Z,35.20
2023-01-17T17:32:46.157Z,29.10
2023-01-17T17:35:14.136Z,30.35
2023-01-17T17:37:41.467Z,30.20
2023-01-17T17:40:09.691Z,28.55
2023-01-17T17:42:36.748Z,35.75
2023-01-17T17:45:04.224Z,31.92
2023-01-17T17:47:31.160Z,29.48
2023-01-17T17:49:58.344Z,32.88
2023-01-17T17:52:25.771Z,33.13
2023-01-17T17:54:52.996Z,28.92
2023-01-17T17:57:19.899Z,32.55
2023-01-17T17:59:47.125Z,36.70
2023-01-17T18:02:14.265Z,33.75
2023-01-17T18:04:41.620Z,30.33
2023-01-17T18:07:08.547Z,29.08
2023-01-17T18:09:35.794Z,31.63
2023-01-17T18:12:03.540Z,35.95
2023-01-17T18:14:30.831Z,35.70
2023-01-17T18:16:57.810Z,32.80
2023-01-17T18:19:26.169Z,34.15
2023-01-17T18:21:53.717Z,32.22
2023-01-17T18:24:23.600Z,38.35
2023-01-17T18:26:52.889Z,35.70
2023-01-17T18:29:21.843Z,32.05
2023-01-17T18:31:50.166Z,34.97
2023-01-17T18:34:28.539Z,41.13
2023-01-17T18:36:56.138Z,40.65
2023-01-17T18:39:26.750Z,44.33
2023-01-17T18:41:54.851Z,37.75
2023-01-17T18:44:23.175Z,39.13
2023-01-17T18:46:52.645Z,39.97
2023-01-17T18:49:20.116Z,42.70
2023-01-17T18:51:50.941Z,39.13
2023-01-17T18:54:20.233Z,46.97
2023-01-17T18:56:47.721Z,53.28
2023-01-17T18:59:18.359Z,48.85
2023-01-17T19:01:46.013Z,47.40
2023-01-17T19:04:15.188Z,49.17
2023-01-17T19:06:44.506Z,48.67
2023-01-17T19:09:13.670Z,45.03
2023-01-17T19:11:40.869Z,48.00
2023-01-17T19:14:08.194Z,51.65
2023-01-17T19:16:39.321Z,48.65
2023-01-17T19:19:10.872Z,48.90
2023-01-17T19:21:38.130Z,54.75
2023-01-17T19:24:05.932Z,50.25
2023-01-17T19:26:33.276Z,50.97
2023-01-17T19:29:00.860Z,54.70
2023-01-17T19:31:30.464Z,47.80
2023-01-17T19:33:59.688Z,52.28
2023-01-17T19:36:33.870Z,52.80
2023-01-17T19:39:06.207Z,48.58
2023-01-17T19:41:36.312Z,48.22
2023-01-17T19:44:08.982Z,56.55
2023-01-17T19:46:36.594Z,51.45
2023-01-17T19:49:06.284Z,48.92
2023-01-17T19:51:33.637Z,62.13
2023-01-17T19:54:01.928Z,49.60
2023-01-17T19:56:29.990Z,46.78
2023-01-17T19:59:01.031Z,57.80
2023-01-17T20:01:33.249Z,59.38
2023-01-17T20:04:02.042Z,49.53
2023-01-17T20:06:32.787Z,49.05
2023-01-17T20:09:00.599Z,51.03
2023-01-17T20:11:28.458Z,50.10
2023-01-17T20:13:57.773Z,49.40
2023-01-17T20:16:26.341Z,52.08
2023-01-17T20:18:53.976Z,50.00
2023-01-17T20:21:24.008Z,52.63
2023-01-17T20:23:52.970Z,47.47
2023-01-17T20:26:29.710Z,44.92
2023-01-17T20:28:57.172Z,54.92
2023-01-17T20:31:25.716Z,51.30
2023-01-17T20:33:55.512Z,56.70
2023-01-17T20:36:26.722Z,47.83
2023-01-17T20:38:54.508Z,52.53
2023-01-17T20:41:28.879Z,49.42
2023-01-17T20:43:58.282Z,51.13
2023-01-17T20:46:27.268Z,50.10
2023-01-17T20:48:57.899Z,54.10
2023-01-17T20:51:27.041Z,46.15
2023-01-17T20:53:56.834Z,48.03
2023-01-17T20:56:24.322Z,51.58
2023-01-17T20:58:53.427Z,53.33
2023-01-17T21:01:21.792Z,46.20
2023-01-17T21:03:51.759Z,52.53
2023-01-17T21:06:20.230Z,47.40
2023-01-17T21:08:48.823Z,52.53
2023-01-17T21:11:19.016Z,49.70
2023-01-17T21:13:48.869Z,47.67
2023-01-17T21:16:17.937Z,51.60
2023-01-17T21:18:50.601Z,45.92
2023-01-17T21:21:22.904Z,46.75
2023-01-17T21:23:52.202Z,57.17
2023-01-17T21:26:21.876Z,53.97
2023-01-17T21:28:50.864Z,55.70
2023-01-17T21:31:23.185Z,51.95
2023-01-17T21:34:02.301Z,56.80
2023-01-17T21:36:33.127Z,49.08
2023-01-17T21:39:04.803Z,51.15
2023-01-17T21:41:35.771Z,47.22
2023-01-17T21:44:11.584Z,51.63
2023-01-17T21:46:40.111Z,49.08
2023-01-17T21:49:12.396Z,52.78
2023-01-17T21:52:03.869Z,53.72
2023-01-17T21:54:49.409Z,49.92
2023-01-17T21:57:38.103Z,52.92
2023-01-17T22:00:08.034Z,59.53
2023-01-17T22:02:47.282Z,56.10
2023-01-17T22:05:16.803Z,59.10
2023-01-17T22:08:04.870Z,65.68
2023-01-17T22:10:33.044Z,54.22
2023-01-17T22:13:00.000Z,56.63
2023-01-17T22:15:27.302Z,56.75
2023-01-17T22:17:54.417Z,55.92
2023-01-17T22:20:21.625Z,57.92
2023-01-17T22:22:48.567Z,57.20
2023-01-17T22:25:15.914Z,61.42
2023-01-17T22:27:42.753Z,65.25
2023-01-17T22:30:13.052Z,60.22
2023-01-17T22:32:40.510Z,63.90
2023-01-17T22:35:08.459Z,67.07
2023-01-17T22:37:35.812Z,59.47
2023-01-17T22:40:04.981Z,67.60
2023-01-17T22:42:35.010Z,65.00
2023-01-17T22:45:02.291Z,64.40
2023-01-17T22:47:29.414Z,59.53
2023-01-17T22:49:57.066Z,53.90
2023-01-17T22:52:24.000Z,64.55
2023-01-17T22:54:51.439Z,65.25
2023-01-17T22:57:18.683Z,60.05
2023-01-17T22:59:46.002Z,68.93
2023-01-17T23:02:13.691Z,64.70
2023-01-17T23:04:42.213Z,67.30
2023-01-17T23:07:09.115Z,60.85
2023-01-17T23:09:36.323Z,70.85
2023-01-17T23:12:03.335Z,73.35
2023-01-17T23:14:54.862Z,69.00
2023-01-17T23:17:41.899Z,66.95
2023-01-17T23:20:11.203Z,66.35
2023-01-17T23:22:39.057Z,68.93
2023-01-17T23:25:11.928Z,71.43
2023-01-17T23:28:00.162Z,69.10
2023-01-17T23:30:35.461Z,74.82
2023-01-17T23:33:08.541Z,71.03
2023-01-17T23:35:41.704Z,67.40
2023-01-17T23:38:34.659Z,65.93
2023-01-17T23:41:26.682Z,69.78
2023-01-17T23:43:55.617Z,70.32
2023-01-17T23:46:25.399Z,70.68
2023-01-17T23:48:52.847Z,70.82
2023-01-17T23:51:20.119Z,66.55
2023-01-17T23:53:47.177Z,74.05
2023-01-17T23:56:20.982Z,73.72
2023-01-17T23:58:48.123Z,71.57
